Flight Track Log - Related Links

Times and Time Zones

All times are in EDT time to prevent confusion due to time zone crossing. See the UAL822 flight status page for this flight to view local times or setup timezone preferences in your user account.

Time Position Orientation Groundspeed Altitude Reporting Facility
EDT Latitude Longitude Course Direction KTS MPH feet Rate Location/Type
10:02AM 44.8500 -93.2167 119° Southeast 161 185 2,400  Level Minneapolis TRACON
10:03AM 44.8381 -93.1733 111° Southeast 186 214 3,300 2,265 Climbing Minneapolis Center
10:04AM 44.8042 -93.0814 117° Southeast 267 307 6,100 2,732 Climbing Minneapolis Center
10:05AM 44.7703 -92.9847 116° Southeast 278 320 8,900 2,537 Climbing Minneapolis Center
10:06AM 44.7431 -92.8669 108° East 314 361 11,300 2,468 Climbing Minneapolis Center
10:07AM 44.5173 -92.4978 109° East  Level Estimated
10:07AM 44.7003 -92.7406 115° Southeast 355 409 14,000  Level Minneapolis Center
10:08AM 44.4560 -92.3781 119° Southeast  Level Estimated
10:08AM 44.6556 -92.6444 123° Southeast 365 420 15,900  Level Minneapolis Center
10:09AM 44.5792 -92.4919 125° Southeast 399 459 18,700 2,710 Climbing Minneapolis Center
10:10AM 44.5083 -92.3264 121° Southeast 413 475 21,500 2,613 Climbing Minneapolis Center
10:11AM 44.4478 -92.1856 121° Southeast 422 486 24,100 2,323 Climbing Minneapolis Center
10:12AM 44.3853 -92.0486 123° Southeast 420 483 26,300 2,146 Climbing Minneapolis Center
10:13AM 44.3256 -91.9111 121° Southeast 417 480 28,500 1,317 Climbing Minneapolis Center
10:14AM 44.2653 -91.7669 120° Southeast 425 489 29,000 242 Climbing Minneapolis Center
10:15AM 44.2000 -91.6219 122° Southeast 438 504 29,000  Level Minneapolis Center
10:16AM 44.1231 -91.4511 122° Southeast 438 504 29,000  Level Minneapolis Center
10:17AM 44.0583 -91.3067 122° Southeast 440 506 29,000  Level Minneapolis Center
10:18AM 43.9914 -91.1564 122° Southeast 438 504 29,000  Level Minneapolis Center
10:19AM 43.9264 -91.0119 122° Southeast 442 509 29,000  Level Minneapolis Center
10:20AM 43.8589 -90.8661 123° Southeast 450 518 29,000  Level Minneapolis Center
10:22AM 43.7936 -90.7208 122° Southeast 448 516 29,000  Level Minneapolis Center
10:23AM 43.7247 -90.5758 123° Southeast 452 520 29,000  Level Minneapolis Center
10:24AM 43.6569 -90.4303 123° Southeast 452 520 29,000 -390 Level Minneapolis Center
10:25AM 43.5769 -90.2578 123° Southeast 448 516 28,200 -823 Descending Minneapolis Center
10:26AM 43.5119 -90.1183 123° Southeast 431 496 27,300 -968 Descending Minneapolis Center
10:27AM 43.4478 -89.9800 123° Southeast 430 495 26,200 -1,486 Descending Minneapolis Center
10:27AM 43.3919 -89.8631 123° Southeast 436 502 24,600 -1,872 Descending Chicago Center
10:28AM 43.3261 -89.7258 123° Southeast 432 497 22,800 -1,694 Descending Chicago Center
10:30AM 43.2625 -89.5886 122° Southeast 429 494 21,100 -1,645 Descending Chicago Center
10:31AM 43.2003 -89.4581 123° Southeast 415 478 19,400 -1,500 Descending Chicago Center
10:32AM 43.1403 -89.3400 125° Southeast 386 444 18,000 -1,065 Descending Chicago Center
10:33AM 43.0500 -89.2369 140° Southeast 368 423 17,200 -823 Descending Chicago Center
10:34AM 42.9731 -89.1511 141° Southeast 361 415 16,300 -1,210 Descending Chicago Center
10:35AM 42.9003 -89.0719 141° Southeast 342 394 14,700 -1,548 Descending Chicago Center
10:36AM 42.8297 -88.9944 141° Southeast 331 381 13,100 -823 Descending Chicago Center
10:37AM 42.7594 -88.9172 141° Southeast 326 375 13,000 -48 Descending Chicago Center
10:38AM 42.6772 -88.8286 142° Southeast 325 374 13,000 -242 Level Chicago Center
10:39AM 42.6081 -88.7514 141° Southeast 322 371 12,500 -823 Descending Chicago Center
10:40AM 42.5428 -88.6794 141° Southeast 305 351 11,300 -1,306 Descending Chicago Center
10:41AM 42.4794 -88.6117 142° Southeast 292 336 9,800 -1,104 Descending Chicago Center
10:42AM 42.4172 -88.5461 142° Southeast 286 329 9,000 -384 Descending Chicago Center
10:43AM 42.3553 -88.4528 132° Southeast 307 353 9,000 -629 Level Chicago Center
10:44AM 42.3344 -88.3481 105° East 291 335 7,700 -919 Descending Chicago Center
10:45AM 42.2944 -88.2647 123° Southeast 283 326 7,100 -290 Descending Chicago Center
10:46AM 42.2311 -88.2069 146° Southeast 274 315 7,100 -484 Level Chicago Center
10:47AM 42.1744 -88.1425 140° Southeast 268 308 6,100 -1,210 Descending Chicago Center
10:48AM 42.1181 -88.0761 139° Southeast 231 266 4,600 -1,420 Descending Chicago Center
10:49AM 42.0667 -88.0333 148° Southeast 176 203 3,000 -1,391 Descending Chicago TRACON

Login

Don't have an account? Register now (free) for customized features, flight alerts, and more!